sensor_id;sensor_type;location;lat;lon;timestamp;temperature;humidity
7030;DHT22;3556;53.500;10.176;2023-11-19T00:02:08;5.20;99.90
7030;DHT22;3556;53.500;10.176;2023-11-19T00:04:37;5.20;99.90
7030;DHT22;3556;53.500;10.176;2023-11-19T00:07:05;5.20;99.90
7030;DHT22;3556;53.500;10.176;2023-11-19T00:09:33;5.20;99.90
7030;DHT22;3556;53.500;10.176;2023-11-19T00:11:59;5.20;99.90
7030;DHT22;3556;53.500;10.176;2023-11-19T00:14:26;5.20;99.90
7030;DHT22;3556;53.500;10.176;2023-11-19T00:16:51;5.20;99.90
7030;DHT22;3556;53.500;10.176;2023-11-19T00:19:19;5.20;99.90
7030;DHT22;3556;53.500;10.176;2023-11-19T00:21:44;5.20;99.90
7030;DHT22;3556;53.500;10.176;2023-11-19T00:24:11;5.20;99.90
7030;DHT22;3556;53.500;10.176;2023-11-19T00:26:38;5.20;99.90
7030;DHT22;3556;53.500;10.176;2023-11-19T00:29:04;5.20;99.90
7030;DHT22;3556;53.500;10.176;2023-11-19T00:31:29;5.20;99.90
7030;DHT22;3556;53.500;10.176;2023-11-19T00:33:55;5.20;99.90
7030;DHT22;3556;53.500;10.176;2023-11-19T00:36:21;5.20;99.90
7030;DHT22;3556;53.500;10.176;2023-11-19T00:38:49;5.30;99.90
7030;DHT22;3556;53.500;10.176;2023-11-19T00:41:15;5.30;99.90
7030;DHT22;3556;53.500;10.176;2023-11-19T00:43:42;5.30;99.90
7030;DHT22;3556;53.500;10.176;2023-11-19T00:46:08;5.30;99.90
7030;DHT22;3556;53.500;10.176;2023-11-19T00:48:34;5.30;99.90
7030;DHT22;3556;53.500;10.176;2023-11-19T00:50:59;5.30;99.90
7030;DHT22;3556;53.500;10.176;2023-11-19T00:53:25;5.30;99.90
7030;DHT22;3556;53.500;10.176;2023-11-19T00:55:50;5.30;99.90
7030;DHT22;3556;53.500;10.176;2023-11-19T00:58:16;5.30;99.90
7030;DHT22;3556;53.500;10.176;2023-11-19T01:00:43;5.30;99.90
7030;DHT22;3556;53.500;10.176;2023-11-19T01:03:10;5.30;99.90
7030;DHT22;3556;53.500;10.176;2023-11-19T01:05:37;5.30;99.90
7030;DHT22;3556;53.500;10.176;2023-11-19T01:08:02;5.30;99.90
7030;DHT22;3556;53.500;10.176;2023-11-19T01:10:30;5.30;99.90
7030;DHT22;3556;53.500;10.176;2023-11-19T01:12:55;5.30;99.90
7030;DHT22;3556;53.500;10.176;2023-11-19T01:15:21;5.30;99.90
7030;DHT22;3556;53.500;10.176;2023-11-19T01:17:48;5.40;99.90
7030;DHT22;3556;53.500;10.176;2023-11-19T01:20:14;5.40;99.90
7030;DHT22;3556;53.500;10.176;2023-11-19T01:22:40;5.40;99.90
7030;DHT22;3556;53.500;10.176;2023-11-19T01:25:06;5.30;99.90
7030;DHT22;3556;53.500;10.176;2023-11-19T01:27:32;5.30;99.90
7030;DHT22;3556;53.500;10.176;2023-11-19T01:30:01;5.30;99.90
7030;DHT22;3556;53.500;10.176;2023-11-19T01:32:28;5.30;99.90
7030;DHT22;3556;53.500;10.176;2023-11-19T01:34:54;5.40;99.90
7030;DHT22;3556;53.500;10.176;2023-11-19T01:37:19;5.40;99.90
7030;DHT22;3556;53.500;10.176;2023-11-19T01:39:45;5.40;99.90
7030;DHT22;3556;53.500;10.176;2023-11-19T01:42:11;5.40;99.90
7030;DHT22;3556;53.500;10.176;2023-11-19T01:44:38;5.40;99.90
7030;DHT22;3556;53.500;10.176;2023-11-19T01:47:03;5.40;99.90
7030;DHT22;3556;53.500;10.176;2023-11-19T01:49:31;5.40;99.90
7030;DHT22;3556;53.500;10.176;2023-11-19T01:51:57;5.40;99.90
7030;DHT22;3556;53.500;10.176;2023-11-19T01:54:23;5.40;99.90
7030;DHT22;3556;53.500;10.176;2023-11-19T01:56:52;5.40;99.90
7030;DHT22;3556;53.500;10.176;2023-11-19T01:59:19;5.40;99.90
7030;DHT22;3556;53.500;10.176;2023-11-19T02:01:52;5.40;99.90
7030;DHT22;3556;53.500;10.176;2023-11-19T02:04:18;5.40;99.90
7030;DHT22;3556;53.500;10.176;2023-11-19T02:06:43;5.40;99.90
7030;DHT22;3556;53.500;10.176;2023-11-19T02:09:10;5.40;99.90
7030;DHT22;3556;53.500;10.176;2023-11-19T02:11:36;5.40;99.90
7030;DHT22;3556;53.500;10.176;2023-11-19T02:14:02;5.40;99.90
7030;DHT22;3556;53.500;10.176;2023-11-19T02:16:29;5.40;99.90
7030;DHT22;3556;53.500;10.176;2023-11-19T02:18:55;5.40;99.90
7030;DHT22;3556;53.500;10.176;2023-11-19T02:21:21;5.50;99.90
7030;DHT22;3556;53.500;10.176;2023-11-19T02:23:46;5.40;99.90
7030;DHT22;3556;53.500;10.176;2023-11-19T02:28:47;5.40;99.90
7030;DHT22;3556;53.500;10.176;2023-11-19T02:31:12;5.50;99.90
7030;DHT22;3556;53.500;10.176;2023-11-19T02:33:38;5.40;99.90
7030;DHT22;3556;53.500;10.176;2023-11-19T02:36:08;5.40;99.90
7030;DHT22;3556;53.500;10.176;2023-11-19T02:38:35;5.40;99.90
7030;DHT22;3556;53.500;10.176;2023-11-19T02:41:04;5.50;99.90
7030;DHT22;3556;53.500;10.176;2023-11-19T02:43:35;5.50;99.90
7030;DHT22;3556;53.500;10.176;2023-11-19T02:46:03;5.50;99.90
7030;DHT22;3556;53.500;10.176;2023-11-19T02:48:32;5.50;99.90
7030;DHT22;3556;53.500;10.176;2023-11-19T02:50:57;5.50;99.90
7030;DHT22;3556;53.500;10.176;2023-11-19T02:53:23;5.50;99.90
7030;DHT22;3556;53.500;10.176;2023-11-19T02:55:50;5.50;99.90
7030;DHT22;3556;53.500;10.176;2023-11-19T02:58:16;5.50;99.90
7030;DHT22;3556;53.500;10.176;2023-11-19T03:00:50;5.60;99.90
7030;DHT22;3556;53.500;10.176;2023-11-19T03:03:27;5.50;99.90
7030;DHT22;3556;53.500;10.176;2023-11-19T03:06:07;5.50;99.90
7030;DHT22;3556;53.500;10.176;2023-11-19T03:08:34;5.60;99.90
7030;DHT22;3556;53.500;10.176;2023-11-19T03:11:00;5.60;99.90
7030;DHT22;3556;53.500;10.176;2023-11-19T03:13:26;5.60;99.90
7030;DHT22;3556;53.500;10.176;2023-11-19T03:15:52;5.60;99.90
7030;DHT22;3556;53.500;10.176;2023-11-19T03:18:19;5.60;99.90
7030;DHT22;3556;53.500;10.176;2023-11-19T03:20:46;5.60;99.90
7030;DHT22;3556;53.500;10.176;2023-11-19T03:23:12;5.60;99.90
7030;DHT22;3556;53.500;10.176;2023-11-19T03:25:38;5.60;99.90
7030;DHT22;3556;53.500;10.176;2023-11-19T03:28:03;5.60;99.90
7030;DHT22;3556;53.500;10.176;2023-11-19T03:30:30;5.60;99.90
7030;DHT22;3556;53.500;10.176;2023-11-19T03:32:56;5.70;99.90
7030;DHT22;3556;53.500;10.176;2023-11-19T03:35:22;5.70;99.90
7030;DHT22;3556;53.500;10.176;2023-11-19T03:37:48;5.70;99.90
7030;DHT22;3556;53.500;10.176;2023-11-19T03:40:14;5.70;99.90
7030;DHT22;3556;53.500;10.176;2023-11-19T03:42:40;5.70;99.90
7030;DHT22;3556;53.500;10.176;2023-11-19T03:45:07;5.70;99.90
7030;DHT22;3556;53.500;10.176;2023-11-19T03:47:34;5.70;99.90
7030;DHT22;3556;53.500;10.176;2023-11-19T03:50:00;5.70;99.90
7030;DHT22;3556;53.500;10.176;2023-11-19T03:52:26;5.70;99.90
7030;DHT22;3556;53.500;10.176;2023-11-19T03:54:55;5.70;99.90
7030;DHT22;3556;53.500;10.176;2023-11-19T03:57:21;5.80;99.90
7030;DHT22;3556;53.500;10.176;2023-11-19T03:59:47;5.80;99.90
7030;DHT22;3556;53.500;10.176;2023-11-19T04:02:13;5.80;99.90
7030;DHT22;3556;53.500;10.176;2023-11-19T04:04:38;5.90;99.90
7030;DHT22;3556;53.500;10.176;2023-11-19T04:07:04;5.90;99.90
7030;DHT22;3556;53.500;10.176;2023-11-19T04:09:31;5.90;99.90
7030;DHT22;3556;53.500;10.176;2023-11-19T04:11:58;5.90;99.90
7030;DHT22;3556;53.500;10.176;2023-11-19T04:14:24;5.90;99.90
7030;DHT22;3556;53.500;10.176;2023-11-19T04:16:50;5.90;99.90
7030;DHT22;3556;53.500;10.176;2023-11-19T04:19:17;5.90;99.90
7030;DHT22;3556;53.500;10.176;2023-11-19T04:21:42;6.00;99.90
7030;DHT22;3556;53.500;10.176;2023-11-19T04:24:11;6.00;99.90
7030;DHT22;3556;53.500;10.176;2023-11-19T04:26:41;6.00;99.90
7030;DHT22;3556;53.500;10.176;2023-11-19T04:29:09;6.00;99.90
7030;DHT22;3556;53.500;10.176;2023-11-19T04:31:35;6.00;99.90
7030;DHT22;3556;53.500;10.176;2023-11-19T04:34:00;6.10;99.90
7030;DHT22;3556;53.500;10.176;2023-11-19T04:36:26;6.10;99.90
7030;DHT22;3556;53.500;10.176;2023-11-19T04:38:52;6.10;99.90
7030;DHT22;3556;53.500;10.176;2023-11-19T04:41:18;6.10;99.90
7030;DHT22;3556;53.500;10.176;2023-11-19T04:43:43;6.10;99.90
7030;DHT22;3556;53.500;10.176;2023-11-19T04:46:09;6.10;99.90
7030;DHT22;3556;53.500;10.176;2023-11-19T04:48:35;6.10;99.90
7030;DHT22;3556;53.500;10.176;2023-11-19T04:51:01;6.20;99.90
7030;DHT22;3556;53.500;10.176;2023-11-19T04:53:26;6.20;99.90
7030;DHT22;3556;53.500;10.176;2023-11-19T04:55:52;6.20;99.90
7030;DHT22;3556;53.500;10.176;2023-11-19T04:58:17;6.20;99.90
7030;DHT22;3556;53.500;10.176;2023-11-19T05:00:44;6.20;99.90
7030;DHT22;3556;53.500;10.176;2023-11-19T05:03:10;6.30;99.90
7030;DHT22;3556;53.500;10.176;2023-11-19T05:05:36;6.30;99.90
7030;DHT22;3556;53.500;10.176;2023-11-19T05:08:02;6.30;99.90
7030;DHT22;3556;53.500;10.176;2023-11-19T05:10:27;6.30;99.90
7030;DHT22;3556;53.500;10.176;2023-11-19T05:12:53;6.40;99.90
7030;DHT22;3556;53.500;10.176;2023-11-19T05:15:21;6.40;99.90
7030;DHT22;3556;53.500;10.176;2023-11-19T05:17:47;6.40;99.90
7030;DHT22;3556;53.500;10.176;2023-11-19T05:20:12;6.50;99.90
7030;DHT22;3556;53.500;10.176;2023-11-19T05:22:42;6.50;99.90
7030;DHT22;3556;53.500;10.176;2023-11-19T05:25:08;6.50;99.90
7030;DHT22;3556;53.500;10.176;2023-11-19T05:27:35;6.50;99.90
7030;DHT22;3556;53.500;10.176;2023-11-19T05:30:01;6.50;99.90
7030;DHT22;3556;53.500;10.176;2023-11-19T05:32:27;6.60;99.90
7030;DHT22;3556;53.500;10.176;2023-11-19T05:34:53;6.60;99.90
7030;DHT22;3556;53.500;10.176;2023-11-19T05:37:18;6.60;99.90
7030;DHT22;3556;53.500;10.176;2023-11-19T05:39:45;6.70;99.90
7030;DHT22;3556;53.500;10.176;2023-11-19T05:42:10;6.70;99.90
7030;DHT22;3556;53.500;10.176;2023-11-19T05:44:36;6.80;99.90
7030;DHT22;3556;53.500;10.176;2023-11-19T05:47:03;6.80;99.90
7030;DHT22;3556;53.500;10.176;2023-11-19T05:49:29;6.90;99.90
7030;DHT22;3556;53.500;10.176;2023-11-19T05:51:55;6.90;99.90
7030;DHT22;3556;53.500;10.176;2023-11-19T05:54:21;7.00;99.90
7030;DHT22;3556;53.500;10.176;2023-11-19T05:56:50;7.00;99.90
7030;DHT22;3556;53.500;10.176;2023-11-19T05:59:19;7.00;99.90
7030;DHT22;3556;53.500;10.176;2023-11-19T06:01:45;7.10;99.90
7030;DHT22;3556;53.500;10.176;2023-11-19T06:04:10;7.10;99.90
7030;DHT22;3556;53.500;10.176;2023-11-19T06:06:36;7.20;99.90
7030;DHT22;3556;53.500;10.176;2023-11-19T06:09:03;7.20;99.90
7030;DHT22;3556;53.500;10.176;2023-11-19T06:11:28;7.30;99.90
7030;DHT22;3556;53.500;10.176;2023-11-19T06:13:54;7.30;99.90
7030;DHT22;3556;53.500;10.176;2023-11-19T06:16:20;7.30;99.90
7030;DHT22;3556;53.500;10.176;2023-11-19T06:18:46;7.30;99.90
7030;DHT22;3556;53.500;10.176;2023-11-19T06:21:12;7.40;99.90
7030;DHT22;3556;53.500;10.176;2023-11-19T06:23:37;7.40;99.90
7030;DHT22;3556;53.500;10.176;2023-11-19T06:26:03;7.40;99.90
7030;DHT22;3556;53.500;10.176;2023-11-19T06:28:30;7.40;99.90
7030;DHT22;3556;53.500;10.176;2023-11-19T06:30:56;7.40;99.90
7030;DHT22;3556;53.500;10.176;2023-11-19T06:33:26;7.40;99.90
7030;DHT22;3556;53.500;10.176;2023-11-19T06:35:52;7.50;99.90
7030;DHT22;3556;53.500;10.176;2023-11-19T06:38:20;7.50;99.90
7030;DHT22;3556;53.500;10.176;2023-11-19T06:40:45;7.50;99.90
7030;DHT22;3556;53.500;10.176;2023-11-19T06:43:11;7.60;99.90
7030;DHT22;3556;53.500;10.176;2023-11-19T06:45:36;7.70;99.90
7030;DHT22;3556;53.500;10.176;2023-11-19T06:48:05;8.00;99.90
7030;DHT22;3556;53.500;10.176;2023-11-19T06:50:32;8.20;99.90
7030;DHT22;3556;53.500;10.176;2023-11-19T06:52:57;8.70;99.90
7030;DHT22;3556;53.500;10.176;2023-11-19T06:55:23;9.00;99.90
7030;DHT22;3556;53.500;10.176;2023-11-19T06:57:49;9.30;99.90
7030;DHT22;3556;53.500;10.176;2023-11-19T07:00:14;9.50;99.90
7030;DHT22;3556;53.500;10.176;2023-11-19T07:02:40;9.70;99.90
7030;DHT22;3556;53.500;10.176;2023-11-19T07:05:06;9.90;99.90
7030;DHT22;3556;53.500;10.176;2023-11-19T07:07:33;10.00;99.90
7030;DHT22;3556;53.500;10.176;2023-11-19T07:09:59;10.00;99.90
7030;DHT22;3556;53.500;10.176;2023-11-19T07:12:24;10.10;99.90
7030;DHT22;3556;53.500;10.176;2023-11-19T07:14:53;10.20;99.90
7030;DHT22;3556;53.500;10.176;2023-11-19T07:17:20;10.40;99.90
7030;DHT22;3556;53.500;10.176;2023-11-19T07:19:47;10.40;99.90
7030;DHT22;3556;53.500;10.176;2023-11-19T07:22:15;10.50;99.90
7030;DHT22;3556;53.500;10.176;2023-11-19T07:24:41;10.50;99.90
7030;DHT22;3556;53.500;10.176;2023-11-19T07:27:07;10.60;99.90
7030;DHT22;3556;53.500;10.176;2023-11-19T07:29:34;10.70;99.90
7030;DHT22;3556;53.500;10.176;2023-11-19T07:32:00;10.70;99.90
7030;DHT22;3556;53.500;10.176;2023-11-19T07:34:27;10.70;99.90
7030;DHT22;3556;53.500;10.176;2023-11-19T07:36:54;10.70;99.90
7030;DHT22;3556;53.500;10.176;2023-11-19T07:39:22;10.70;99.90
7030;DHT22;3556;53.500;10.176;2023-11-19T07:41:48;10.70;99.90
7030;DHT22;3556;53.500;10.176;2023-11-19T07:44:14;10.80;99.90
7030;DHT22;3556;53.500;10.176;2023-11-19T07:46:40;10.70;99.90
7030;DHT22;3556;53.500;10.176;2023-11-19T07:49:07;10.80;99.90
7030;DHT22;3556;53.500;10.176;2023-11-19T07:51:33;10.80;99.90
7030;DHT22;3556;53.500;10.176;2023-11-19T07:53:58;10.80;99.90
7030;DHT22;3556;53.500;10.176;2023-11-19T07:56:24;10.90;99.90
7030;DHT22;3556;53.500;10.176;2023-11-19T07:58:50;10.90;99.90
7030;DHT22;3556;53.500;10.176;2023-11-19T08:01:15;11.00;99.90
7030;DHT22;3556;53.500;10.176;2023-11-19T08:03:41;11.10;99.90
7030;DHT22;3556;53.500;10.176;2023-11-19T08:06:07;11.10;99.90
7030;DHT22;3556;53.500;10.176;2023-11-19T08:08:32;11.20;99.90
7030;DHT22;3556;53.500;10.176;2023-11-19T08:11:00;11.20;99.90
7030;DHT22;3556;53.500;10.176;2023-11-19T08:13:25;11.20;99.90
7030;DHT22;3556;53.500;10.176;2023-11-19T08:15:52;11.20;99.90
7030;DHT22;3556;53.500;10.176;2023-11-19T08:18:17;11.20;99.90
7030;DHT22;3556;53.500;10.176;2023-11-19T08:20:44;11.20;99.90
7030;DHT22;3556;53.500;10.176;2023-11-19T08:23:10;11.20;99.90
7030;DHT22;3556;53.500;10.176;2023-11-19T08:25:36;11.20;99.90
7030;DHT22;3556;53.500;10.176;2023-11-19T08:28:01;11.20;99.90
7030;DHT22;3556;53.500;10.176;2023-11-19T08:30:29;11.30;99.90
7030;DHT22;3556;53.500;10.176;2023-11-19T08:32:54;11.30;99.90
7030;DHT22;3556;53.500;10.176;2023-11-19T08:35:20;11.30;99.90
7030;DHT22;3556;53.500;10.176;2023-11-19T08:37:46;11.30;99.90
7030;DHT22;3556;53.500;10.176;2023-11-19T08:40:12;11.30;99.90
7030;DHT22;3556;53.500;10.176;2023-11-19T08:42:40;11.30;99.90
7030;DHT22;3556;53.500;10.176;2023-11-19T08:45:07;11.30;99.90
7030;DHT22;3556;53.500;10.176;2023-11-19T08:47:32;11.30;99.90
7030;DHT22;3556;53.500;10.176;2023-11-19T08:49:58;11.30;99.90
7030;DHT22;3556;53.500;10.176;2023-11-19T08:52:23;11.30;99.90
7030;DHT22;3556;53.500;10.176;2023-11-19T08:54:49;11.30;99.90
7030;DHT22;3556;53.500;10.176;2023-11-19T08:57:15;11.30;99.90
7030;DHT22;3556;53.500;10.176;2023-11-19T08:59:40;11.30;99.90
7030;DHT22;3556;53.500;10.176;2023-11-19T09:02:06;11.30;99.90
7030;DHT22;3556;53.500;10.176;2023-11-19T09:04:32;11.30;99.90
7030;DHT22;3556;53.500;10.176;2023-11-19T09:06:58;11.40;99.90
7030;DHT22;3556;53.500;10.176;2023-11-19T09:09:24;11.40;99.90
7030;DHT22;3556;53.500;10.176;2023-11-19T09:11:50;11.40;99.90
7030;DHT22;3556;53.500;10.176;2023-11-19T09:14:16;11.50;99.90
7030;DHT22;3556;53.500;10.176;2023-11-19T09:16:43;11.50;99.90
7030;DHT22;3556;53.500;10.176;2023-11-19T09:19:09;11.60;99.90
7030;DHT22;3556;53.500;10.176;2023-11-19T09:21:34;11.60;99.90
7030;DHT22;3556;53.500;10.176;2023-11-19T09:24:04;11.60;99.90
7030;DHT22;3556;53.500;10.176;2023-11-19T09:26:30;11.70;99.90
7030;DHT22;3556;53.500;10.176;2023-11-19T09:28:56;11.70;99.90
7030;DHT22;3556;53.500;10.176;2023-11-19T09:31:21;11.70;99.90
7030;DHT22;3556;53.500;10.176;2023-11-19T09:33:47;11.80;99.90
7030;DHT22;3556;53.500;10.176;2023-11-19T09:36:12;11.80;99.90
7030;DHT22;3556;53.500;10.176;2023-11-19T09:38:48;11.80;99.90
7030;DHT22;3556;53.500;10.176;2023-11-19T09:41:14;11.90;99.90
7030;DHT22;3556;53.500;10.176;2023-11-19T09:43:41;11.90;99.90
7030;DHT22;3556;53.500;10.176;2023-11-19T09:46:10;12.00;99.90
7030;DHT22;3556;53.500;10.176;2023-11-19T09:48:39;12.00;99.90
7030;DHT22;3556;53.500;10.176;2023-11-19T09:51:09;12.00;99.90
7030;DHT22;3556;53.500;10.176;2023-11-19T09:53:35;12.10;99.90
7030;DHT22;3556;53.500;10.176;2023-11-19T09:56:05;12.10;99.90
7030;DHT22;3556;53.500;10.176;2023-11-19T09:58:32;12.10;99.90
7030;DHT22;3556;53.500;10.176;2023-11-19T10:00:58;12.10;99.90
7030;DHT22;3556;53.500;10.176;2023-11-19T10:03:27;12.10;99.90
7030;DHT22;3556;53.500;10.176;2023-11-19T10:05:58;12.00;99.90
7030;DHT22;3556;53.500;10.176;2023-11-19T10:08:24;11.90;99.90
7030;DHT22;3556;53.500;10.176;2023-11-19T10:10:50;11.90;99.90
7030;DHT22;3556;53.500;10.176;2023-11-19T10:13:17;11.80;99.90
7030;DHT22;3556;53.500;10.176;2023-11-19T10:15:43;11.80;99.90
7030;DHT22;3556;53.500;10.176;2023-11-19T10:18:09;11.80;99.90
7030;DHT22;3556;53.500;10.176;2023-11-19T10:20:40;11.80;99.90
7030;DHT22;3556;53.500;10.176;2023-11-19T10:23:06;11.80;99.90
7030;DHT22;3556;53.500;10.176;2023-11-19T10:25:33;11.80;99.90
7030;DHT22;3556;53.500;10.176;2023-11-19T10:27:58;11.80;99.90
7030;DHT22;3556;53.500;10.176;2023-11-19T10:30:26;11.90;99.90
7030;DHT22;3556;53.500;10.176;2023-11-19T10:33:09;11.90;99.90
7030;DHT22;3556;53.500;10.176;2023-11-19T10:35:36;11.90;99.90
7030;DHT22;3556;53.500;10.176;2023-11-19T10:38:13;11.80;99.90
7030;DHT22;3556;53.500;10.176;2023-11-19T10:40:40;11.80;99.90
7030;DHT22;3556;53.500;10.176;2023-11-19T10:43:06;11.80;99.90
7030;DHT22;3556;53.500;10.176;2023-11-19T10:45:33;11.80;99.90
7030;DHT22;3556;53.500;10.176;2023-11-19T10:47:59;11.70;99.90
7030;DHT22;3556;53.500;10.176;2023-11-19T10:50:26;11.80;99.90
7030;DHT22;3556;53.500;10.176;2023-11-19T10:52:56;11.80;99.90
7030;DHT22;3556;53.500;10.176;2023-11-19T10:55:27;11.80;99.90
7030;DHT22;3556;53.500;10.176;2023-11-19T10:57:59;11.80;99.90
7030;DHT22;3556;53.500;10.176;2023-11-19T11:00:25;11.80;99.90
7030;DHT22;3556;53.500;10.176;2023-11-19T11:02:55;11.80;99.90
7030;DHT22;3556;53.500;10.176;2023-11-19T11:05:22;11.80;99.90
7030;DHT22;3556;53.500;10.176;2023-11-19T11:07:50;11.70;99.90
7030;DHT22;3556;53.500;10.176;2023-11-19T11:10:18;11.70;99.90
7030;DHT22;3556;53.500;10.176;2023-11-19T11:12:47;11.70;99.90
7030;DHT22;3556;53.500;10.176;2023-11-19T11:15:18;11.60;99.90
7030;DHT22;3556;53.500;10.176;2023-11-19T11:17:45;11.60;99.90
7030;DHT22;3556;53.500;10.176;2023-11-19T11:20:11;11.60;99.90
7030;DHT22;3556;53.500;10.176;2023-11-19T11:26:06;11.60;99.90
7030;DHT22;3556;53.500;10.176;2023-11-19T11:28:58;11.60;99.90
7030;DHT22;3556;53.500;10.176;2023-11-19T11:39:41;11.40;99.90
7030;DHT22;3556;53.500;10.176;2023-11-19T11:45:06;11.30;99.90
7030;DHT22;3556;53.500;10.176;2023-11-19T11:50:13;11.40;99.90
7030;DHT22;3556;53.500;10.176;2023-11-19T11:55:26;11.50;99.90
7030;DHT22;3556;53.500;10.176;2023-11-19T11:57:53;11.50;99.90
7030;DHT22;3556;53.500;10.176;2023-11-19T12:00:39;11.60;99.90
7030;DHT22;3556;53.500;10.176;2023-11-19T12:03:08;11.70;99.90
7030;DHT22;3556;53.500;10.176;2023-11-19T12:05:48;11.70;99.90
7030;DHT22;3556;53.500;10.176;2023-11-19T12:08:14;11.80;99.90
7030;DHT22;3556;53.500;10.176;2023-11-19T12:13:14;11.90;99.90
7030;DHT22;3556;53.500;10.176;2023-11-19T12:18:26;11.90;99.90
7030;DHT22;3556;53.500;10.176;2023-11-19T12:20:52;11.90;99.90
7030;DHT22;3556;53.500;10.176;2023-11-19T12:23:17;11.90;99.90
7030;DHT22;3556;53.500;10.176;2023-11-19T12:25:43;11.90;99.90
7030;DHT22;3556;53.500;10.176;2023-11-19T12:28:15;11.90;99.90
7030;DHT22;3556;53.500;10.176;2023-11-19T12:30:44;11.90;99.90
7030;DHT22;3556;53.500;10.176;2023-11-19T12:33:11;11.90;99.90
7030;DHT22;3556;53.500;10.176;2023-11-19T12:35:41;12.00;99.90
7030;DHT22;3556;53.500;10.176;2023-11-19T12:38:09;11.90;99.90
7030;DHT22;3556;53.500;10.176;2023-11-19T12:40:43;11.90;99.90
7030;DHT22;3556;53.500;10.176;2023-11-19T12:43:08;12.00;99.90
7030;DHT22;3556;53.500;10.176;2023-11-19T12:45:35;12.00;99.90
7030;DHT22;3556;53.500;10.176;2023-11-19T12:48:05;12.00;99.90
7030;DHT22;3556;53.500;10.176;2023-11-19T12:50:54;12.10;99.90
7030;DHT22;3556;53.500;10.176;2023-11-19T12:53:21;12.20;99.90
7030;DHT22;3556;53.500;10.176;2023-11-19T12:55:48;12.30;99.90
7030;DHT22;3556;53.500;10.176;2023-11-19T12:58:33;12.30;99.90
7030;DHT22;3556;53.500;10.176;2023-11-19T13:01:04;12.30;99.90
7030;DHT22;3556;53.500;10.176;2023-11-19T13:03:34;12.30;99.90
7030;DHT22;3556;53.500;10.176;2023-11-19T13:06:09;12.30;99.90
7030;DHT22;3556;53.500;10.176;2023-11-19T13:08:49;12.40;99.90
7030;DHT22;3556;53.500;10.176;2023-11-19T13:11:34;12.50;99.90
7030;DHT22;3556;53.500;10.176;2023-11-19T13:14:02;12.70;99.90
7030;DHT22;3556;53.500;10.176;2023-11-19T13:16:30;12.80;99.90
7030;DHT22;3556;53.500;10.176;2023-11-19T13:18:56;13.00;99.90
7030;DHT22;3556;53.500;10.176;2023-11-19T13:21:23;13.00;99.90
7030;DHT22;3556;53.500;10.176;2023-11-19T13:23:48;12.90;99.90
7030;DHT22;3556;53.500;10.176;2023-11-19T13:26:14;12.80;99.90
7030;DHT22;3556;53.500;10.176;2023-11-19T13:28:40;12.70;99.90
7030;DHT22;3556;53.500;10.176;2023-11-19T13:31:05;12.60;99.90
7030;DHT22;3556;53.500;10.176;2023-11-19T13:33:31;12.40;99.90
7030;DHT22;3556;53.500;10.176;2023-11-19T13:35:57;12.30;99.90
7030;DHT22;3556;53.500;10.176;2023-11-19T13:38:23;12.30;99.90
7030;DHT22;3556;53.500;10.176;2023-11-19T13:40:49;12.30;99.90
7030;DHT22;3556;53.500;10.176;2023-11-19T13:43:15;12.20;99.90
7030;DHT22;3556;53.500;10.176;2023-11-19T13:45:40;12.20;99.90
7030;DHT22;3556;53.500;10.176;2023-11-19T13:48:06;12.20;99.90
7030;DHT22;3556;53.500;10.176;2023-11-19T13:50:31;12.10;99.90
7030;DHT22;3556;53.500;10.176;2023-11-19T13:52:59;12.10;99.90
7030;DHT22;3556;53.500;10.176;2023-11-19T13:55:25;12.00;99.90
7030;DHT22;3556;53.500;10.176;2023-11-19T13:57:51;12.00;99.90
7030;DHT22;3556;53.500;10.176;2023-11-19T14:00:17;12.10;99.90
7030;DHT22;3556;53.500;10.176;2023-11-19T14:02:45;12.10;99.90
7030;DHT22;3556;53.500;10.176;2023-11-19T14:05:11;12.10;99.90
7030;DHT22;3556;53.500;10.176;2023-11-19T14:07:40;12.10;99.90
7030;DHT22;3556;53.500;10.176;2023-11-19T14:10:06;12.10;99.90
7030;DHT22;3556;53.500;10.176;2023-11-19T14:12:33;12.10;99.90
7030;DHT22;3556;53.500;10.176;2023-11-19T14:14:59;12.00;99.90
7030;DHT22;3556;53.500;10.176;2023-11-19T14:17:25;12.00;99.90
7030;DHT22;3556;53.500;10.176;2023-11-19T14:19:51;11.90;99.90
7030;DHT22;3556;53.500;10.176;2023-11-19T14:22:17;11.90;99.90
7030;DHT22;3556;53.500;10.176;2023-11-19T14:24:42;11.80;99.90
7030;DHT22;3556;53.500;10.176;2023-11-19T14:27:09;11.80;99.90
7030;DHT22;3556;53.500;10.176;2023-11-19T14:29:35;11.70;99.90
7030;DHT22;3556;53.500;10.176;2023-11-19T14:32:01;11.70;99.90
7030;DHT22;3556;53.500;10.176;2023-11-19T14:34:28;11.70;99.90
7030;DHT22;3556;53.500;10.176;2023-11-19T14:36:54;11.60;99.90
7030;DHT22;3556;53.500;10.176;2023-11-19T14:39:20;11.60;99.90
7030;DHT22;3556;53.500;10.176;2023-11-19T14:41:46;11.50;99.90
7030;DHT22;3556;53.500;10.176;2023-11-19T14:44:11;11.40;99.90
7030;DHT22;3556;53.500;10.176;2023-11-19T14:46:37;11.40;99.90
7030;DHT22;3556;53.500;10.176;2023-11-19T14:49:03;11.40;99.90
7030;DHT22;3556;53.500;10.176;2023-11-19T14:51:36;11.30;99.90
7030;DHT22;3556;53.500;10.176;2023-11-19T14:54:02;11.30;99.90
7030;DHT22;3556;53.500;10.176;2023-11-19T14:56:28;11.30;99.90
7030;DHT22;3556;53.500;10.176;2023-11-19T14:58:54;11.30;99.90
7030;DHT22;3556;53.500;10.176;2023-11-19T15:01:19;11.30;99.90
7030;DHT22;3556;53.500;10.176;2023-11-19T15:03:45;11.30;99.90
7030;DHT22;3556;53.500;10.176;2023-11-19T15:06:10;11.20;99.90
7030;DHT22;3556;53.500;10.176;2023-11-19T15:08:37;11.20;99.90
7030;DHT22;3556;53.500;10.176;2023-11-19T15:11:03;11.20;99.90
7030;DHT22;3556;53.500;10.176;2023-11-19T15:13:30;11.20;99.90
7030;DHT22;3556;53.500;10.176;2023-11-19T15:15:56;11.20;99.90
7030;DHT22;3556;53.500;10.176;2023-11-19T15:18:22;11.20;99.90
7030;DHT22;3556;53.500;10.176;2023-11-19T15:20:48;11.10;99.90
7030;DHT22;3556;53.500;10.176;2023-11-19T15:23:14;11.10;99.90
7030;DHT22;3556;53.500;10.176;2023-11-19T15:25:40;11.00;99.90
7030;DHT22;3556;53.500;10.176;2023-11-19T15:28:06;11.00;99.90
7030;DHT22;3556;53.500;10.176;2023-11-19T15:30:32;11.00;99.90
7030;DHT22;3556;53.500;10.176;2023-11-19T15:32:58;10.90;99.90
7030;DHT22;3556;53.500;10.176;2023-11-19T15:35:23;10.90;99.90
7030;DHT22;3556;53.500;10.176;2023-11-19T15:37:49;10.90;99.90
7030;DHT22;3556;53.500;10.176;2023-11-19T15:40:15;10.80;99.90
7030;DHT22;3556;53.500;10.176;2023-11-19T15:42:41;10.80;99.90
7030;DHT22;3556;53.500;10.176;2023-11-19T15:45:09;10.80;99.90
7030;DHT22;3556;53.500;10.176;2023-11-19T15:47:35;10.80;99.90
7030;DHT22;3556;53.500;10.176;2023-11-19T15:50:04;10.80;99.90
7030;DHT22;3556;53.500;10.176;2023-11-19T15:52:30;10.80;99.90
7030;DHT22;3556;53.500;10.176;2023-11-19T15:54:57;10.80;99.90
7030;DHT22;3556;53.500;10.176;2023-11-19T15:57:23;10.80;99.90
7030;DHT22;3556;53.500;10.176;2023-11-19T15:59:48;10.70;99.90
7030;DHT22;3556;53.500;10.176;2023-11-19T16:02:15;10.70;99.90
7030;DHT22;3556;53.500;10.176;2023-11-19T16:04:41;10.70;99.90
7030;DHT22;3556;53.500;10.176;2023-11-19T16:07:06;10.70;99.90
7030;DHT22;3556;53.500;10.176;2023-11-19T16:09:32;10.70;99.90
7030;DHT22;3556;53.500;10.176;2023-11-19T16:11:58;10.70;99.90
7030;DHT22;3556;53.500;10.176;2023-11-19T16:14:24;10.70;99.90
7030;DHT22;3556;53.500;10.176;2023-11-19T16:16:50;10.70;99.90
7030;DHT22;3556;53.500;10.176;2023-11-19T16:19:16;10.70;99.90